Time;durP1;ratioP1;P1;durP2;ratioP2;P2;SDS_P1;SDS_P2;PMS_P1;PMS_P2;Temp;Humidity;BMP_temperature;BMP_pressure;BME280_temperature;BME280_humidity;BME280_pressure;Samples;Min_cycle;Max_cycle;Signal;HPM_P1;HPM_P2
2023/10/10 00:01:05;;;;;;;19.13;13.30;;;;;;;7.56;74.02;100783.63;5031583;28;20603;-62
2023/10/10 00:03:37;;;;;;;19.27;12.80;;;;;;;7.57;74.10;100775.94;5031241;28;20225;-62
2023/10/10 00:06:08;;;;;;;19.63;13.00;;;;;;;7.58;73.80;100777.66;5032845;28;20728;-62
2023/10/10 00:08:40;;;;;;;20.93;13.30;;;;;;;7.54;73.87;100775.91;5031383;28;20704;-61
2023/10/10 00:11:10;;;;;;;18.07;12.00;;;;;;;7.53;74.56;100770.75;5029687;28;20199;-62
2023/10/10 00:13:42;;;;;;;18.87;12.17;;;;;;;7.51;73.60;100775.84;5033264;28;20229;-61
2023/10/10 00:16:11;;;;;;;18.13;11.97;;;;;;;7.53;73.82;100776.75;5029835;28;20249;-62
2023/10/10 00:18:43;;;;;;;17.23;11.57;;;;;;;7.54;74.30;100773.31;5034691;28;20217;-62
2023/10/10 00:21:22;;;;;;;16.87;11.50;;;;;;;7.55;73.66;100779.31;5030155;28;20218;-59
2023/10/10 00:23:53;;;;;;;17.73;12.07;;;;;;;7.53;74.07;100781.00;5024679;28;20225;-59
2023/10/10 00:26:22;;;;;;;17.30;12.23;;;;;;;7.51;74.06;100778.41;5032671;28;20285;-59
2023/10/10 00:28:56;;;;;;;18.67;12.53;;;;;;;7.53;74.18;100784.44;5032362;28;20580;-60
2023/10/10 00:31:26;;;;;;;15.27;12.13;;;;;;;7.52;73.86;100792.13;5025260;28;20218;-60
2023/10/10 00:33:56;;;;;;;15.73;11.30;;;;;;;7.46;74.26;100790.31;5029366;28;20299;-59
2023/10/10 00:36:33;;;;;;;16.90;12.27;;;;;;;7.42;74.01;100789.41;5033319;28;20241;-60
2023/10/10 00:39:07;;;;;;;16.80;12.00;;;;;;;7.39;74.51;100783.38;5030759;28;20206;-61
2023/10/10 00:41:50;;;;;;;19.07;12.43;;;;;;;7.40;73.92;100790.22;5032082;28;20227;-60
2023/10/10 00:44:19;;;;;;;19.27;11.57;;;;;;;7.40;74.30;100780.88;5036035;28;20213;-59
2023/10/10 00:46:51;;;;;;;17.93;11.80;;;;;;;7.37;73.71;100780.81;5030787;28;20199;-60
2023/10/10 00:49:23;;;;;;;17.43;11.83;;;;;;;7.34;73.67;100778.22;5026332;28;20199;-59
2023/10/10 00:51:55;;;;;;;18.13;10.80;;;;;;;7.34;73.70;100777.34;5028307;28;20246;-58
2023/10/10 00:54:32;;;;;;;17.17;10.93;;;;;;;7.29;74.42;100776.41;5028693;28;20234;-59
2023/10/10 00:57:03;;;;;;;15.13;10.63;;;;;;;7.22;74.13;100771.22;5033102;28;20256;-59
2023/10/10 00:59:35;;;;;;;14.63;11.23;;;;;;;7.23;74.10;100783.19;5030865;28;20199;-61
2023/10/10 01:02:06;;;;;;;18.67;12.03;;;;;;;7.16;75.12;100776.25;5027528;28;20214;-62
2023/10/10 01:04:39;;;;;;;16.27;11.33;;;;;;;7.11;74.40;100777.03;5030443;28;20199;-59
2023/10/10 01:07:09;;;;;;;17.57;11.70;;;;;;;7.09;74.75;100774.44;5031633;28;20195;-63
2023/10/10 01:09:51;;;;;;;16.23;11.50;;;;;;;7.10;74.47;100778.72;5030502;28;20203;-60
2023/10/10 01:12:19;;;;;;;16.33;11.90;;;;;;;7.07;74.27;100777.81;5029212;28;20203;-59
2023/10/10 01:14:47;;;;;;;16.10;10.33;;;;;;;7.05;75.13;100775.25;5031703;28;20634;-59
2023/10/10 01:17:16;;;;;;;18.27;12.00;;;;;;;7.05;74.98;100777.81;5030771;28;20203;-62
2023/10/10 01:19:44;;;;;;;17.53;11.40;;;;;;;7.06;75.31;100769.28;5030239;28;20646;-59
2023/10/10 01:22:22;;;;;;;17.93;11.40;;;;;;;7.06;75.54;100766.72;5030044;28;20222;-62
2023/10/10 01:24:52;;;;;;;18.07;11.20;;;;;;;7.04;74.62;100770.09;5028768;28;20215;-60
2023/10/10 01:27:21;;;;;;;17.57;10.70;;;;;;;7.01;74.93;100761.53;5030850;28;20202;-59
2023/10/10 01:30:02;;;;;;;15.07;10.90;;;;;;;7.01;74.85;100771.78;5026901;28;20207;-62
2023/10/10 01:32:31;;;;;;;14.63;10.70;;;;;;;7.01;75.13;100770.91;5032305;28;20211;-62
2023/10/10 01:35:01;;;;;;;15.50;10.53;;;;;;;7.03;75.46;100769.22;5030788;28;20213;-63
2023/10/10 01:37:35;;;;;;;16.27;11.63;;;;;;;7.01;75.60;100766.66;5029241;28;20569;-62
2023/10/10 01:40:14;;;;;;;17.53;11.33;;;;;;;6.98;75.59;100760.63;5029008;28;20202;-63
2023/10/10 01:42:45;;;;;;;16.90;11.47;;;;;;;6.93;76.08;100762.25;5028826;28;20301;-61
2023/10/10 01:45:18;;;;;;;16.87;11.87;;;;;;;6.89;75.83;100763.06;5030389;28;20245;-62
2023/10/10 01:47:56;;;;;;;19.27;12.43;;;;;;;6.85;75.50;100763.81;5032251;28;20245;-63
2023/10/10 01:50:26;;;;;;;20.27;12.07;;;;;;;6.75;75.74;100766.25;5027877;28;20207;-61
2023/10/10 01:52:57;;;;;;;18.03;12.80;;;;;;;6.71;75.87;100761.94;5028137;28;20238;-61
2023/10/10 01:55:25;;;;;;;14.77;11.57;;;;;;;6.63;75.75;100768.63;5028808;28;20654;-64
2023/10/10 01:57:54;;;;;;;18.20;12.63;;;;;;;6.63;76.08;100772.88;5030771;28;20269;-61
2023/10/10 02:00:26;;;;;;;18.20;12.53;;;;;;;6.61;75.72;100775.41;5026756;28;20277;-61
2023/10/10 02:02:55;;;;;;;19.03;12.13;;;;;;;6.62;76.05;100773.72;5029294;28;20273;-60
2023/10/10 02:05:40;;;;;;;17.67;12.33;;;;;;;6.63;76.67;100778.88;5030678;28;20230;-60
2023/10/10 02:08:11;;;;;;;18.27;12.50;;;;;;;6.62;75.81;100779.69;5026772;28;20680;-62
2023/10/10 02:10:46;;;;;;;15.70;11.60;;;;;;;6.63;76.15;100784.00;5030889;28;20202;-62
2023/10/10 02:13:14;;;;;;;18.90;13.27;;;;;;;6.61;76.03;100785.66;5029945;28;20253;-62
2023/10/10 02:15:42;;;;;;;18.00;12.97;;;;;;;6.57;75.88;100783.88;5026164;28;20650;-61
2023/10/10 02:18:13;;;;;;;18.83;12.97;;;;;;;6.57;76.48;100786.44;5028492;28;20209;-61
2023/10/10 02:20:52;;;;;;;18.10;13.07;;;;;;;6.48;76.09;100782.06;5027772;28;20213;-64
2023/10/10 02:23:31;;;;;;;18.40;13.43;;;;;;;6.43;76.18;100781.09;5029175;28;20584;-62
2023/10/10 02:26:03;;;;;;;20.00;13.20;;;;;;;6.36;76.25;100778.41;5030297;28;20206;-63
2023/10/10 02:28:43;;;;;;;18.83;13.33;;;;;;;6.41;76.57;100787.91;5029512;28;20777;-61
2023/10/10 02:31:14;;;;;;;19.27;14.00;;;;;;;6.42;76.39;100789.63;5025980;28;20621;-62
2023/10/10 02:33:55;;;;;;;17.83;13.17;;;;;;;6.40;76.33;100783.59;5029773;28;20210;-62
2023/10/10 02:36:30;;;;;;;21.93;14.17;;;;;;;6.39;76.48;100791.25;5023983;28;20206;-63
2023/10/10 02:39:18;;;;;;;20.83;14.47;;;;;;;6.26;76.88;100796.16;5028205;28;20256;-62
2023/10/10 02:41:51;;;;;;;22.23;14.10;;;;;;;6.20;76.76;100797.75;5024924;28;20748;-65
2023/10/10 02:44:46;;;;;;;18.57;13.80;;;;;;;6.16;76.98;100791.72;5029085;28;20207;-65
2023/10/10 02:47:14;;;;;;;23.43;15.37;;;;;;;6.14;77.28;100790.81;5028076;28;20569;-65
2023/10/10 02:49:43;;;;;;;20.13;14.13;;;;;;;6.14;76.71;100795.06;5027803;28;20206;-66
2023/10/10 02:52:14;;;;;;;21.73;14.43;;;;;;;6.14;77.00;100790.81;5028828;28;20238;-64
2023/10/10 02:54:53;;;;;;;21.57;14.13;;;;;;;6.08;77.33;100784.75;5029813;28;20653;-63
2023/10/10 02:57:28;;;;;;;22.13;16.03;;;;;;;6.05;76.97;100793.22;5029463;28;20209;-67
2023/10/10 03:00:15;;;;;;;20.23;14.17;;;;;;;6.07;77.56;100793.22;5028801;28;20255;-64
2023/10/10 03:02:49;;;;;;;22.47;15.27;;;;;;;6.04;77.02;100794.91;5026336;28;20245;-65
2023/10/10 03:05:37;;;;;;;24.93;15.80;;;;;;;5.96;77.55;100801.56;5025823;28;20205;-66
2023/10/10 03:08:13;;;;;;;22.73;15.67;;;;;;;5.90;77.46;100795.44;5025944;28;20199;-65
2023/10/10 03:10:46;;;;;;;20.50;14.33;;;;;;;5.81;77.59;100794.41;5032983;28;20202;-65
2023/10/10 03:13:27;;;;;;;22.83;14.53;;;;;;;5.78;77.78;100794.38;5027356;28;20670;-65
2023/10/10 03:15:57;;;;;;;20.77;14.90;;;;;;;5.74;78.42;100790.03;5028801;28;20198;-62
2023/10/10 03:18:30;;;;;;;24.00;15.27;;;;;;;5.75;78.64;100794.31;5029425;28;20638;-64
2023/10/10 03:24:15;;;;;;;23.13;14.90;;;;;;;5.73;78.16;100801.06;5007791;28;20211;-66
2023/10/10 03:27:00;;;;;;;18.57;13.43;;;;;;;5.67;78.46;100792.41;5028338;28;20210;-66
2023/10/10 03:29:46;;;;;;;21.27;14.07;;;;;;;5.75;78.17;100804.53;5034123;28;20206;-65
2023/10/10 03:32:30;;;;;;;20.97;13.73;;;;;;;5.76;78.50;100806.25;5030819;28;20230;-64
2023/10/10 03:35:05;;;;;;;22.73;14.60;;;;;;;5.77;78.37;100809.66;5032162;28;20209;-65
2023/10/10 03:37:40;;;;;;;22.70;14.27;;;;;;;5.71;78.44;100807.88;5032020;28;20241;-67
2023/10/10 03:40:21;;;;;;;23.50;14.37;;;;;;;5.68;78.84;100804.38;5032060;28;20198;-65
2023/10/10 05:25:50;;;;;;;18.67;13.53;;;;;;;5.46;81.16;100882.31;5023946;28;20245;-62
2023/10/10 05:28:19;;;;;;;20.83;14.63;;;;;;;5.47;80.83;100894.25;5025137;28;20213;-63
2023/10/10 05:30:47;;;;;;;20.43;14.70;;;;;;;5.50;81.02;100876.44;5031953;28;20253;-62
2023/10/10 05:33:19;;;;;;;20.83;14.40;;;;;;;5.50;81.10;100884.09;5026347;28;20606;-63
2023/10/10 05:35:48;;;;;;;16.27;13.80;;;;;;;5.58;81.27;100887.69;5022002;28;20721;-60
2023/10/10 05:38:19;;;;;;;21.27;14.00;;;;;;;5.67;81.13;100887.00;5026529;28;20260;-59
2023/10/10 05:40:48;;;;;;;19.17;13.70;;;;;;;5.74;80.50;100888.88;5027279;28;20242;-59
2023/10/10 05:43:17;;;;;;;17.87;13.47;;;;;;;5.80;79.96;100894.13;5025286;28;20314;-61
2023/10/10 05:45:46;;;;;;;17.17;13.47;;;;;;;5.88;80.55;100891.72;5029613;28;20217;-60
2023/10/10 05:48:14;;;;;;;18.97;13.60;;;;;;;5.93;80.00;100895.25;5024767;28;20206;-59
2023/10/10 05:50:42;;;;;;;20.80;13.87;;;;;;;5.97;80.18;100902.19;5026650;28;20198;-58
2023/10/10 05:53:11;;;;;;;17.93;13.93;;;;;;;5.97;79.89;100897.94;5028870;28;20235;-59
2023/10/10 05:55:40;;;;;;;22.03;12.97;;;;;;;6.06;79.80;100897.25;5025774;28;20541;-59
2023/10/10 05:58:08;;;;;;;21.30;13.50;;;;;;;6.13;79.48;100896.56;5030808;28;20209;-59
2023/10/10 06:00:37;;;;;;;17.70;13.97;;;;;;;6.20;79.42;100903.53;5032192;28;20554;-62
2023/10/10 06:03:06;;;;;;;19.13;13.50;;;;;;;6.24;78.83;100904.44;5027470;28;20657;-62
2023/10/10 06:05:34;;;;;;;23.10;14.03;;;;;;;6.23;78.63;100901.03;5030060;28;20211;-59
2023/10/10 06:08:05;;;;;;;22.23;14.80;;;;;;;6.27;78.60;100901.94;5028862;28;20232;-60
2023/10/10 06:10:34;;;;;;;21.73;14.30;;;;;;;6.26;78.61;100913.88;5031235;28;20206;-63
2023/10/10 06:13:06;;;;;;;19.70;14.13;;;;;;;6.27;78.90;100907.94;5031650;28;20744;-63
2023/10/10 06:15:35;;;;;;;17.50;13.03;;;;;;;6.29;79.29;100900.28;5030013;28;20210;-64
2023/10/10 06:18:12;;;;;;;23.33;14.07;;;;;;;6.35;79.06;100909.78;5031497;28;20242;-60
2023/10/10 06:20:41;;;;;;;23.37;14.37;;;;;;;6.48;79.00;100907.50;5027297;28;20289;-60
2023/10/10 06:23:32;;;;;;;22.43;14.67;;;;;;;6.64;78.28;100913.75;5029465;28;20230;-63
2023/10/10 06:26:04;;;;;;;23.90;13.83;;;;;;;6.86;78.17;100914.13;5031376;28;20305;-62
2023/10/10 06:28:42;;;;;;;17.73;13.90;;;;;;;7.11;78.00;100915.44;5026250;28;20209;-62
2023/10/10 06:31:17;;;;;;;18.80;12.73;;;;;;;7.33;77.54;100924.28;5029854;28;20681;-62
2023/10/10 06:33:49;;;;;;;19.37;13.10;;;;;;;7.56;76.39;100933.22;5031205;28;20282;-62
2023/10/10 06:36:32;;;;;;;18.80;12.80;;;;;;;7.71;74.66;100925.75;5030935;28;20214;-63
2023/10/10 06:39:18;;;;;;;20.77;12.67;;;;;;;7.87;74.28;100931.09;5031342;28;20658;-63
2023/10/10 06:41:58;;;;;;;19.47;13.00;;;;;;;8.06;74.04;100933.03;5024395;28;20712;-62
2023/10/10 06:44:35;;;;;;;16.47;12.50;;;;;;;8.23;72.05;100934.13;5025798;28;20211;-61
2023/10/10 06:47:10;;;;;;;20.93;13.30;;;;;;;8.38;71.27;100938.63;5025490;28;20206;-60
2023/10/10 06:49:53;;;;;;;19.43;12.73;;;;;;;8.46;70.58;100939.56;5027100;28;20203;-61
2023/10/10 06:52:24;;;;;;;17.07;12.13;;;;;;;8.60;70.56;100942.28;5026312;28;20238;-61
2023/10/10 06:54:55;;;;;;;21.87;13.47;;;;;;;8.77;70.22;100945.06;5030813;28;20207;-62
2023/10/10 06:57:35;;;;;;;20.03;12.80;;;;;;;8.91;69.13;100947.72;5027072;28;20653;-63
2023/10/10 07:00:21;;;;;;;18.73;12.97;;;;;;;9.14;69.47;100943.69;5030542;28;20280;-62
2023/10/10 07:02:50;;;;;;;19.57;12.50;;;;;;;9.42;68.25;100951.63;5023076;28;20301;-63
2023/10/10 07:05:20;;;;;;;21.27;13.47;;;;;;;9.61;66.94;100943.19;5029173;28;20234;-64
2023/10/10 07:07:53;;;;;;;18.27;13.03;;;;;;;9.66;65.08;100956.09;5030593;28;20202;-63
2023/10/10 07:10:26;;;;;;;17.77;13.20;;;;;;;9.46;66.58;100950.78;5030861;28;20296;-63
2023/10/10 07:12:57;;;;;;;16.83;12.30;;;;;;;9.27;66.60;100951.50;5027811;28;20202;-63
2023/10/10 07:15:33;;;;;;;22.37;12.77;;;;;;;9.12;67.48;100959.94;5011787;28;20210;-64
2023/10/10 07:18:08;;;;;;;19.07;13.20;;;;;;;9.08;68.27;100958.19;5029815;28;20198;-63
2023/10/10 07:21:07;;;;;;;22.77;13.30;;;;;;;9.11;68.96;100950.50;5027411;28;20207;-61
2023/10/10 07:23:38;;;;;;;18.13;13.33;;;;;;;9.26;69.06;100947.22;5023892;28;20284;-60
2023/10/10 07:26:18;;;;;;;14.80;12.00;;;;;;;9.47;68.63;100949.94;5026003;28;20553;-61
2023/10/10 07:28:52;;;;;;;19.40;12.23;;;;;;;10.29;71.61;100947.03;5022054;28;20234;-60
2023/10/10 07:31:24;;;;;;;17.17;11.83;;;;;;;12.15;69.00;100952.25;5030842;28;20214;-61
2023/10/10 07:33:56;;;;;;;16.10;11.10;;;;;;;14.12;61.41;100937.84;5023466;28;20299;-60
2023/10/10 07:36:28;;;;;;;17.20;10.33;;;;;;;15.73;53.26;100932.03;5027815;28;20210;-61
2023/10/10 07:39:32;;;;;;;15.77;9.67;;;;;;;16.84;48.60;100934.09;5027772;28;20302;-63
2023/10/10 07:41:57;;;;;;;11.33;8.67;;;;;;;17.44;44.71;100937.81;5024650;28;20309;-60
2023/10/10 07:44:26;;;;;;;11.55;8.75;;;;;;;17.32;43.17;100939.00;5029994;28;20219;-63
2023/10/10 07:49:50;;;;;;;14.88;8.63;;;;;;;17.89;42.67;100933.16;5027149;28;20209;-61
2023/10/10 07:52:20;;;;;;;10.32;7.30;;;;;;;18.54;41.97;100940.00;5028652;28;20682;-61
2023/10/10 07:54:53;;;;;;;8.57;6.68;;;;;;;19.28;40.81;100944.63;5028815;28;20688;-63
2023/10/10 07:57:28;;;;;;;8.98;7.07;;;;;;;18.66;38.54;100944.84;5030242;28;20596;-60
2023/10/10 07:59:57;;;;;;;11.88;6.60;;;;;;;17.47;40.22;100943.81;5030055;28;20256;-61
2023/10/10 08:02:31;;;;;;;6.53;5.82;;;;;;;16.30;42.06;100943.03;5029925;28;20296;-60
2023/10/10 08:05:09;;;;;;;10.20;5.65;;;;;;;15.34;44.40;100950.84;5028479;28;20221;-59
2023/10/10 08:07:38;;;;;;;8.57;5.78;;;;;;;14.68;46.20;100941.47;5026790;28;20194;-59
2023/10/10 08:10:13;;;;;;;10.10;6.78;;;;;;;14.30;47.87;100941.97;5033221;28;20202;-61
2023/10/10 08:12:43;;;;;;;11.27;6.45;;;;;;;14.15;49.20;100942.16;5032025;28;20206;-59
2023/10/10 08:15:19;;;;;;;8.57;6.35;;;;;;;14.18;50.43;100948.16;5032485;28;20583;-59
2023/10/10 08:17:54;;;;;;;6.95;6.05;;;;;;;14.32;50.32;100942.78;5033537;28;20285;-64
2023/10/10 08:21:07;;;;;;;9.13;6.03;;;;;;;14.46;49.63;100938.28;5032294;28;20661;-60
2023/10/10 08:23:24;;;;;;;7.68;6.20;;;;;;;14.57;48.67;100933.00;5032822;28;20260;-61
2023/10/10 08:25:52;;;;;;;8.23;5.90;;;;;;;14.53;47.92;100938.25;5032746;28;20222;-60
2023/10/10 08:28:21;;;;;;;9.02;6.30;;;;;;;14.24;46.98;100937.69;5034104;28;20206;-62
2023/10/10 08:30:49;;;;;;;8.82;6.28;;;;;;;13.77;48.45;100948.59;5033729;28;20657;-60
2023/10/10 08:33:19;;;;;;;7.15;6.32;;;;;;;13.33;49.12;100944.72;5030312;28;20210;-60
2023/10/10 08:35:48;;;;;;;7.50;6.73;;;;;;;12.95;51.06;100943.22;5031793;28;20217;-57
2023/10/10 08:38:20;;;;;;;8.53;7.33;;;;;;;12.70;51.03;100942.56;5031428;28;20213;-59
2023/10/10 08:40:57;;;;;;;8.53;7.30;;;;;;;12.56;51.92;100937.44;5027617;28;20207;-57
2023/10/10 08:43:31;;;;;;;10.00;7.37;;;;;;;12.61;51.79;100936.56;5031951;28;20202;-59
2023/10/10 08:46:04;;;;;;;11.13;7.90;;;;;;;12.75;51.95;100927.00;5033404;28;20218;-57
2023/10/10 08:48:34;;;;;;;9.20;7.17;;;;;;;12.93;52.14;100931.19;5032528;28;20602;-58
2023/10/10 08:51:04;;;;;;;11.00;6.83;;;;;;;13.08;51.59;100927.63;5029342;28;20676;-60
2023/10/10 08:53:35;;;;;;;11.80;7.47;;;;;;;13.06;51.15;100931.06;5031562;28;20237;-59
2023/10/10 08:56:04;;;;;;;10.53;7.13;;;;;;;12.97;51.22;100925.97;5032666;28;20207;-58
2023/10/10 08:58:32;;;;;;;10.83;6.70;;;;;;;12.84;50.95;100929.50;5031425;28;20211;-65
2023/10/10 09:01:00;;;;;;;10.67;7.17;;;;;;;12.66;51.78;100935.66;5032718;28;20207;-69
2023/10/10 09:03:34;;;;;;;10.53;7.87;;;;;;;12.52;51.68;100933.16;5031812;28;20211;-59
2023/10/10 09:06:20;;;;;;;10.13;7.40;;;;;;;12.42;52.25;100930.63;5027707;28;20603;-60
2023/10/10 09:08:50;;;;;;;9.77;7.03;;;;;;;12.26;52.22;100927.25;5024418;28;21246;-58
2023/10/10 09:11:20;;;;;;;11.20;7.87;;;;;;;12.07;52.63;100932.47;5031218;28;20206;-60
2023/10/10 09:13:51;;;;;;;9.73;7.30;;;;;;;11.96;53.12;100931.66;5026113;28;20298;-59
2023/10/10 09:16:21;;;;;;;9.43;7.47;;;;;;;11.94;53.66;100932.53;5031685;28;20888;-59
2023/10/10 09:19:10;;;;;;;9.87;7.97;;;;;;;11.87;53.87;100923.09;5028383;28;20559;-59
2023/10/10 09:21:50;;;;;;;10.67;8.07;;;;;;;11.79;54.35;100928.25;5027923;28;20206;-58
2023/10/10 09:24:28;;;;;;;7.90;5.97;;;;;;;11.68;53.56;100930.84;5027947;28;20194;-60
2023/10/10 09:26:58;;;;;;;7.10;5.70;;;;;;;11.50;53.75;100936.91;5028371;28;20403;-60
2023/10/10 09:29:32;;;;;;;7.80;5.60;;;;;;;11.41;53.93;100934.31;5029700;28;20202;-58
2023/10/10 09:32:01;;;;;;;6.43;5.73;;;;;;;11.40;54.19;100930.00;5027787;28;20198;-63
2023/10/10 09:34:40;;;;;;;7.30;6.10;;;;;;;11.41;54.53;100926.56;5030778;28;21860;-62
2023/10/10 09:37:17;;;;;;;7.40;6.47;;;;;;;11.46;55.08;100940.34;5027025;28;20877;-62
2023/10/10 09:39:54;;;;;;;7.20;5.80;;;;;;;11.51;55.31;100938.59;5029245;28;20264;-63
2023/10/10 09:42:44;;;;;;;9.23;5.67;;;;;;;11.55;54.58;100942.91;5029225;28;20202;-60
2023/10/10 09:45:27;;;;;;;6.90;5.40;;;;;;;11.60;54.66;100948.94;5031485;28;20566;-60
2023/10/10 09:47:57;;;;;;;7.37;5.70;;;;;;;11.72;55.10;100944.63;5027935;28;20206;-59
2023/10/10 09:53:23;;;;;;;5.23;4.73;;;;;;;11.73;53.33;100943.75;5033924;28;20599;-60
2023/10/10 09:55:53;;;;;;;6.53;5.17;;;;;;;11.72;53.73;100942.03;5026704;28;20288;-58
2023/10/10 09:58:27;;;;;;;5.67;5.07;;;;;;;11.82;53.76;100941.16;5028061;28;21075;-58
2023/10/10 10:01:14;;;;;;;8.50;5.00;;;;;;;11.85;53.21;100936.00;5026947;28;20285;-59
2023/10/10 10:03:55;;;;;;;6.10;4.73;;;;;;;11.78;53.20;100931.66;5028509;28;20210;-59
2023/10/10 10:06:52;;;;;;;7.70;4.83;;;;;;;11.73;53.27;100934.28;5029501;28;20217;-63
2023/10/10 10:09:51;;;;;;;6.47;4.40;;;;;;;11.79;53.17;100934.28;5018996;28;20668;-59
2023/10/10 10:12:46;;;;;;;6.27;4.50;;;;;;;11.85;53.57;100928.25;5032032;28;20294;-59
2023/10/10 10:15:28;;;;;;;4.90;4.17;;;;;;;11.98;53.35;100919.59;5029119;28;20195;-59
2023/10/10 10:18:12;;;;;;;4.93;4.33;;;;;;;12.06;53.13;100912.69;5031098;28;20696;-60
2023/10/10 10:20:46;;;;;;;4.20;3.70;;;;;;;12.02;52.03;100916.16;5023125;28;20688;-60
2023/10/10 10:23:20;;;;;;;4.77;3.63;;;;;;;11.93;52.17;100905.88;5029084;28;20234;-60
2023/10/10 10:26:04;;;;;;;4.33;3.53;;;;;;;11.88;52.21;100912.75;5028985;28;20681;-60
2023/10/10 10:28:36;;;;;;;3.63;3.23;;;;;;;11.86;52.44;100911.91;5027197;28;20202;-59
2023/10/10 10:31:08;;;;;;;4.47;3.70;;;;;;;11.89;52.76;100919.63;5020538;28;20206;-60
2023/10/10 10:33:52;;;;;;;3.90;3.47;;;;;;;11.95;52.93;100917.03;5028736;28;20274;-61
2023/10/10 10:36:26;;;;;;;5.80;3.60;;;;;;;12.03;52.64;100907.53;5030344;28;20234;-60
2023/10/10 10:41:51;;;;;;;4.30;3.20;;;;;;;12.18;51.36;100903.16;5023647;28;20212;-61
2023/10/10 10:44:44;;;;;;;3.93;3.03;;;;;;;12.18;51.33;100900.59;5028100;28;20209;-60
2023/10/10 10:47:45;;;;;;;3.43;2.70;;;;;;;12.16;50.98;100904.91;5029772;28;20218;-60
2023/10/10 10:50:40;;;;;;;4.20;2.60;;;;;;;12.23;51.69;100901.44;5028785;28;20638;-60
2023/10/10 10:53:20;;;;;;;3.67;2.80;;;;;;;12.46;50.39;100899.59;5028484;28;20254;-60
2023/10/10 10:56:06;;;;;;;4.53;2.90;;;;;;;12.81;50.10;100894.19;5029731;28;20613;-60
2023/10/10 10:58:48;;;;;;;2.93;2.27;;;;;;;13.03;48.81;100889.72;5026570;28;20213;-59
2023/10/10 11:01:17;;;;;;;2.90;2.53;;;;;;;12.97;47.79;100894.09;5028067;28;20203;-62
2023/10/10 11:03:45;;;;;;;3.70;2.80;;;;;;;12.82;48.36;100893.31;5027934;28;20211;-61
2023/10/10 11:06:14;;;;;;;3.07;2.63;;;;;;;12.80;48.53;100889.03;5026792;28;20654;-60
2023/10/10 11:08:52;;;;;;;3.03;2.73;;;;;;;13.00;48.03;100889.75;5031060;28;20202;-61
2023/10/10 11:11:36;;;;;;;4.37;2.67;;;;;;;13.43;47.61;100873.00;5026138;28;20203;-60
2023/10/10 11:14:18;;;;;;;2.87;2.10;;;;;;;14.04;46.72;100892.19;5028913;28;20202;-60
2023/10/10 11:16:46;;;;;;;3.10;2.37;;;;;;;14.33;44.65;100884.03;5025168;28;20241;-59
2023/10/10 11:19:35;;;;;;;3.40;2.87;;;;;;;14.21;43.64;100869.47;5030045;28;20228;-61
2023/10/10 11:22:05;;;;;;;2.53;2.33;;;;;;;13.92;43.97;100873.31;5026287;28;20314;-61
2023/10/10 11:24:35;;;;;;;4.73;2.37;;;;;;;13.65;44.41;100878.81;5028438;28;20256;-60
2023/10/10 11:27:13;;;;;;;3.23;2.47;;;;;;;13.49;45.14;100878.97;5026101;28;20214;-61
2023/10/10 11:29:45;;;;;;;2.77;2.50;;;;;;;13.76;45.07;100866.59;5027749;28;20638;-58
2023/10/10 11:32:15;;;;;;;4.20;2.70;;;;;;;14.23;44.72;100866.00;5021960;28;20206;-61
2023/10/10 11:34:49;;;;;;;2.80;2.20;;;;;;;14.70;43.82;100864.50;5025275;28;20666;-58
2023/10/10 11:37:21;;;;;;;2.60;2.40;;;;;;;15.13;42.65;100857.75;5024410;28;20222;-61
2023/10/10 11:39:57;;;;;;;2.63;2.22;;;;;;;15.41;41.37;100869.34;5030856;28;20652;-60
2023/10/10 11:42:29;;;;;;;2.77;2.10;;;;;;;15.15;40.69;100866.38;5029404;28;20209;-60
2023/10/10 11:45:06;;;;;;;2.07;1.90;;;;;;;14.67;41.31;100866.28;5025089;28;20226;-59
2023/10/10 11:47:42;;;;;;;2.90;2.03;;;;;;;14.14;42.33;100865.25;5024283;28;20241;-59
2023/10/10 11:50:12;;;;;;;3.70;2.23;;;;;;;13.81;43.44;100862.25;5032650;28;20564;-58
2023/10/10 11:52:51;;;;;;;3.13;1.90;;;;;;;13.58;44.46;100865.06;5030043;28;20253;-61
2023/10/10 11:55:20;;;;;;;3.67;1.87;;;;;;;13.44;44.77;100865.22;5029207;28;20294;-59
2023/10/10 11:57:49;;;;;;;4.17;2.17;;;;;;;13.33;45.49;100861.88;5033537;28;20207;-62
2023/10/10 12:00:22;;;;;;;2.73;2.20;;;;;;;13.28;45.80;100871.41;5035483;28;20203;-60
2023/10/10 12:02:55;;;;;;;3.07;2.37;;;;;;;13.40;45.76;100857.47;5029065;28;20619;-60
2023/10/10 12:05:47;;;;;;;2.30;1.80;;;;;;;13.69;45.84;100858.03;5032363;28;20204;-60
2023/10/10 12:08:22;;;;;;;3.60;2.27;;;;;;;14.04;44.47;100853.31;5030068;28;20584;-61
2023/10/10 12:10:53;;;;;;;3.60;2.30;;;;;;;14.48;43.99;100853.56;5029754;28;20233;-60
2023/10/10 12:13:33;;;;;;;3.93;1.97;;;;;;;14.93;43.55;100850.31;5032903;28;20215;-59
2023/10/10 12:16:07;;;;;;;2.88;1.92;;;;;;;15.30;41.89;100850.53;5030598;28;20222;-61
2023/10/10 12:18:36;;;;;;;3.57;1.83;;;;;;;15.49;40.96;100853.63;5024672;28;20213;-59
2023/10/10 12:21:10;;;;;;;6.38;2.35;;;;;;;15.32;39.68;100848.75;5034820;28;20296;-60
2023/10/10 12:23:38;;;;;;;2.17;1.75;;;;;;;14.88;40.38;100847.78;5031404;28;20213;-61
2023/10/10 12:26:08;;;;;;;3.20;2.17;;;;;;;14.40;41.27;100844.19;5029921;28;20309;-59
2023/10/10 12:28:36;;;;;;;2.33;1.80;;;;;;;13.97;42.90;100840.44;5029000;28;20256;-61
2023/10/10 12:31:08;;;;;;;2.97;2.63;;;;;;;13.65;43.60;100850.31;5031674;28;20229;-61
2023/10/10 12:33:37;;;;;;;2.93;2.40;;;;;;;13.51;44.68;100853.94;5032683;28;20202;-60
2023/10/10 12:36:09;;;;;;;3.00;2.37;;;;;;;13.60;45.11;100849.53;5036358;28;20290;-60
2023/10/10 12:38:38;;;;;;;3.13;2.60;;;;;;;13.57;44.81;100846.97;5031727;28;20206;-63
2023/10/10 12:41:11;;;;;;;3.30;2.37;;;;;;;13.53;44.69;100854.75;5030393;28;20654;-59
2023/10/10 12:43:39;;;;;;;3.23;2.07;;;;;;;13.47;44.41;100854.81;5030962;28;20605;-60
2023/10/10 12:46:09;;;;;;;2.90;2.10;;;;;;;13.35;44.21;100854.94;5028648;28;20207;-60
2023/10/10 12:48:39;;;;;;;2.60;2.20;;;;;;;13.22;44.94;100858.50;5027984;28;20205;-60
2023/10/10 12:51:09;;;;;;;3.47;2.40;;;;;;;13.12;44.81;100852.56;5030080;28;20244;-61
2023/10/10 12:53:40;;;;;;;3.67;2.60;;;;;;;13.28;45.49;100856.72;5032645;28;20700;-60
2023/10/10 12:56:11;;;;;;;2.47;2.00;;;;;;;13.68;45.43;100847.69;5035867;28;20202;-58
2023/10/10 12:58:42;;;;;;;2.70;2.27;;;;;;;14.10;44.95;100840.25;5027258;28;20636;-59
2023/10/10 13:01:15;;;;;;;3.77;2.03;;;;;;;14.46;43.79;100839.75;5031365;28;20573;-58
2023/10/10 13:03:47;;;;;;;4.23;2.93;;;;;;;14.71;42.78;100840.28;5033454;28;20229;-59
2023/10/10 13:06:16;;;;;;;4.13;2.50;;;;;;;14.91;42.64;100839.06;5029457;28;20217;-60
2023/10/10 13:08:48;;;;;;;3.67;2.87;;;;;;;15.07;42.13;100827.56;5037184;28;20210;-60
2023/10/10 13:11:19;;;;;;;3.77;2.97;;;;;;;15.08;41.36;100825.81;5032848;28;20206;-63
2023/10/10 13:13:51;;;;;;;3.20;2.57;;;;;;;15.07;41.28;100827.56;5031850;28;20234;-59
2023/10/10 13:16:25;;;;;;;4.00;2.23;;;;;;;14.98;40.95;100827.72;5026328;28;20684;-57
2023/10/10 13:18:55;;;;;;;1.90;1.80;;;;;;;15.05;40.84;100823.28;5028343;28;20297;-61
2023/10/10 13:21:23;;;;;;;2.97;2.10;;;;;;;15.13;40.57;100824.00;5029179;28;20661;-59
2023/10/10 13:23:52;;;;;;;2.13;1.93;;;;;;;15.21;39.92;100828.19;5029634;28;20203;-59
2023/10/10 13:26:25;;;;;;;2.77;2.00;;;;;;;15.31;39.83;100826.25;5027671;28;20221;-60
2023/10/10 13:28:53;;;;;;;3.07;2.20;;;;;;;15.44;39.96;100814.75;5029546;28;20211;-60
2023/10/10 13:31:24;;;;;;;4.53;2.40;;;;;;;15.50;39.56;100807.72;5031211;28;20207;-60
2023/10/10 13:33:53;;;;;;;2.13;1.65;;;;;;;15.53;39.29;100802.47;5033391;28;20681;-61
2023/10/10 13:36:21;;;;;;;4.07;1.90;;;;;;;15.57;39.59;100804.13;5030875;28;20757;-59
2023/10/10 13:38:50;;;;;;;2.78;1.80;;;;;;;15.54;38.25;100802.47;5031414;28;20202;-59
2023/10/10 13:41:20;;;;;;;3.15;2.00;;;;;;;15.25;38.94;100803.03;5029777;28;20222;-60
2023/10/10 13:43:51;;;;;;;2.22;1.98;;;;;;;14.94;39.62;100794.91;5029800;28;20199;-60
2023/10/10 13:46:21;;;;;;;2.20;1.85;;;;;;;14.71;40.17;100790.97;5028113;28;20693;-59